sensor_id;sensor_type;location;lat;lon;timestamp;pressure;altitude;pressure_sealevel;temperature;humidity
50684;BME280;36654;45.042;38.994;2023-04-08T00:01:04;101103.09;;;11.05;91.59
50684;BME280;36654;45.042;38.994;2023-04-08T00:03:30;101107.59;;;11.09;91.63
50684;BME280;36654;45.042;38.994;2023-04-08T00:05:56;101095.13;;;11.05;91.58
50684;BME280;36654;45.042;38.994;2023-04-08T00:08:22;101061.25;;;10.84;91.73
50684;BME280;36654;45.042;38.994;2023-04-08T00:10:48;101049.69;;;10.78;91.91
50684;BME280;36654;45.042;38.994;2023-04-08T00:13:13;101047.91;;;10.79;92.00
50684;BME280;36654;45.042;38.994;2023-04-08T00:15:40;101096.88;;;11.02;91.85
50684;BME280;36654;45.042;38.994;2023-04-08T00:18:06;101103.03;;;10.98;91.83
50684;BME280;36654;45.042;38.994;2023-04-08T00:20:32;101102.00;;;10.90;91.71
50684;BME280;36654;45.042;38.994;2023-04-08T00:22:58;101101.91;;;10.84;91.82
50684;BME280;36654;45.042;38.994;2023-04-08T00:25:24;101113.41;;;10.85;92.13
50684;BME280;36654;45.042;38.994;2023-04-08T00:27:49;101103.69;;;10.85;92.25
50684;BME280;36654;45.042;38.994;2023-04-08T00:30:15;101087.56;;;10.73;92.38
50684;BME280;36654;45.042;38.994;2023-04-08T00:32:41;101101.91;;;10.84;92.35
50684;BME280;36654;45.042;38.994;2023-04-08T00:35:07;101105.41;;;10.83;92.35
50684;BME280;36654;45.042;38.994;2023-04-08T00:37:32;101039.44;;;10.47;92.32
50684;BME280;36654;45.042;38.994;2023-04-08T00:39:59;101085.88;;;10.78;92.47
50684;BME280;36654;45.042;38.994;2023-04-08T00:42:25;101076.91;;;10.70;92.55
50684;BME280;36654;45.042;38.994;2023-04-08T00:44:51;101087.66;;;10.76;92.58
50684;BME280;36654;45.042;38.994;2023-04-08T00:47:17;101092.94;;;10.76;92.75
50684;BME280;36654;45.042;38.994;2023-04-08T00:49:43;101086.72;;;10.74;92.99
50684;BME280;36654;45.042;38.994;2023-04-08T00:52:09;101091.09;;;10.72;92.62
50684;BME280;36654;45.042;38.994;2023-04-08T00:54:36;101091.97;;;10.71;92.94
50684;BME280;36654;45.042;38.994;2023-04-08T00:57:02;101089.28;;;10.69;93.10
50684;BME280;36654;45.042;38.994;2023-04-08T00:59:29;101082.06;;;10.61;93.20
50684;BME280;36654;45.042;38.994;2023-04-08T01:02:02;101089.22;;;10.65;93.24
50684;BME280;36654;45.042;38.994;2023-04-08T01:04:59;101086.53;;;10.63;93.62
50684;BME280;36654;45.042;38.994;2023-04-08T01:07:33;101089.06;;;10.55;93.77
50684;BME280;36654;45.042;38.994;2023-04-08T01:10:21;101098.81;;;10.58;93.78
50684;BME280;36654;45.042;38.994;2023-04-08T01:12:55;101113.78;;;10.54;93.81
50684;BME280;36654;45.042;38.994;2023-04-08T01:15:21;101097.78;;;10.48;94.11
50684;BME280;36654;45.042;38.994;2023-04-08T01:17:52;101077.31;;;10.40;94.08
50684;BME280;36654;45.042;38.994;2023-04-08T01:20:21;101096.03;;;10.50;94.28
50684;BME280;36654;45.042;38.994;2023-04-08T01:25:26;101048.88;;;10.29;94.78
50684;BME280;36654;45.042;38.994;2023-04-08T01:27:55;101080.00;;;10.43;94.79
50684;BME280;36654;45.042;38.994;2023-04-08T01:30:23;101103.19;;;10.54;95.14
50684;BME280;36654;45.042;38.994;2023-04-08T01:32:52;101103.19;;;10.54;95.29
50684;BME280;36654;45.042;38.994;2023-04-08T01:35:18;101095.22;;;10.54;95.15
50684;BME280;36654;45.042;38.994;2023-04-08T01:37:45;101095.19;;;10.51;95.39
50684;BME280;36654;45.042;38.994;2023-04-08T01:40:13;101094.25;;;10.49;95.32
50684;BME280;36654;45.042;38.994;2023-04-08T01:42:41;101038.06;;;10.19;95.34
50684;BME280;36654;45.042;38.994;2023-04-08T01:45:08;101095.94;;;10.46;95.30
50684;BME280;36654;45.042;38.994;2023-04-08T01:47:36;101049.50;;;10.18;95.24
50684;BME280;36654;45.042;38.994;2023-04-08T01:50:04;101101.19;;;10.41;95.32
50684;BME280;36654;45.042;38.994;2023-04-08T01:52:31;101080.72;;;10.32;95.20
50684;BME280;36654;45.042;38.994;2023-04-08T01:54:59;101085.22;;;10.38;95.34
50684;BME280;36654;45.042;38.994;2023-04-08T01:57:27;101090.47;;;10.35;95.35
50684;BME280;36654;45.042;38.994;2023-04-08T01:59:59;101091.34;;;10.35;95.32
50684;BME280;36654;45.042;38.994;2023-04-08T02:02:26;101084.03;;;10.22;95.08
50684;BME280;36654;45.042;38.994;2023-04-08T02:04:53;101084.97;;;10.26;95.02
50684;BME280;36654;45.042;38.994;2023-04-08T02:07:19;101082.25;;;10.21;94.99
50684;BME280;36654;45.042;38.994;2023-04-08T02:09:45;101073.25;;;10.11;94.87
50684;BME280;36654;45.042;38.994;2023-04-08T02:12:11;101091.94;;;10.21;95.30
50684;BME280;36654;45.042;38.994;2023-04-08T02:14:37;101042.84;;;9.91;95.25
50684;BME280;36654;45.042;38.994;2023-04-08T02:17:12;101041.09;;;9.93;95.38
50684;BME280;36654;45.042;38.994;2023-04-08T02:19:45;101075.06;;;10.15;95.49
50684;BME280;36654;45.042;38.994;2023-04-08T02:25:03;101091.94;;;10.21;95.73
50684;BME280;36654;45.042;38.994;2023-04-08T02:27:33;101120.09;;;10.15;95.45
50684;BME280;36654;45.042;38.994;2023-04-08T02:30:04;101098.91;;;10.15;95.36
50684;BME280;36654;45.042;38.994;2023-04-08T02:32:32;101098.81;;;10.09;95.24
50684;BME280;36654;45.042;38.994;2023-04-08T02:34:58;101109.47;;;10.12;95.15
50684;BME280;36654;45.042;38.994;2023-04-08T02:37:27;101109.47;;;10.12;94.94
50684;BME280;36654;45.042;38.994;2023-04-08T02:39:52;101051.41;;;9.76;94.95
50684;BME280;36654;45.042;38.994;2023-04-08T02:42:18;101111.19;;;10.10;94.90
50684;BME280;36654;45.042;38.994;2023-04-08T02:44:43;101107.69;;;10.11;95.04
50684;BME280;36654;45.042;38.994;2023-04-08T02:47:09;101097.84;;;10.06;95.14
50684;BME280;36654;45.042;38.994;2023-04-08T02:49:35;101101.47;;;10.09;94.92
50684;BME280;36654;45.042;38.994;2023-04-08T02:52:01;101098.81;;;10.09;94.96
50684;BME280;36654;45.042;38.994;2023-04-08T02:54:26;101088.97;;;10.02;94.74
50684;BME280;36654;45.042;38.994;2023-04-08T02:56:52;101099.69;;;10.08;94.91
50684;BME280;36654;45.042;38.994;2023-04-08T02:59:17;101088.84;;;9.96;94.41
50684;BME280;36654;45.042;38.994;2023-04-08T03:01:43;101096.81;;;9.96;94.44
50684;BME280;36654;45.042;38.994;2023-04-08T03:04:09;101038.00;;;9.68;94.52
50684;BME280;36654;45.042;38.994;2023-04-08T03:06:35;101093.28;;;9.97;94.67
50684;BME280;36654;45.042;38.994;2023-04-08T03:09:00;101100.44;;;10.01;94.43
50684;BME280;36654;45.042;38.994;2023-04-08T03:11:26;101095.13;;;10.01;94.57
50684;BME280;36654;45.042;38.994;2023-04-08T03:13:51;101082.78;;;10.03;94.58
50684;BME280;36654;45.042;38.994;2023-04-08T03:16:17;101082.63;;;9.94;94.27
50684;BME280;36654;45.042;38.994;2023-04-08T03:18:43;101084.28;;;9.89;94.31
50684;BME280;36654;45.042;38.994;2023-04-08T03:21:08;101098.63;;;9.99;94.12
50684;BME280;36654;45.042;38.994;2023-04-08T03:23:34;101098.53;;;9.94;93.95
50684;BME280;36654;45.042;38.994;2023-04-08T03:26:00;101061.84;;;9.68;93.76
50684;BME280;36654;45.042;38.994;2023-04-08T03:28:25;101099.31;;;9.90;93.94
50684;BME280;36654;45.042;38.994;2023-04-08T03:30:51;101099.22;;;9.85;93.72
50684;BME280;36654;45.042;38.994;2023-04-08T03:33:16;101109.06;;;9.91;93.68
50684;BME280;36654;45.042;38.994;2023-04-08T03:35:42;101058.13;;;9.60;93.67
50684;BME280;36654;45.042;38.994;2023-04-08T03:38:08;101112.59;;;9.93;93.95
50684;BME280;36654;45.042;38.994;2023-04-08T03:40:33;101108.22;;;9.93;93.88
50684;BME280;36654;45.042;38.994;2023-04-08T03:42:59;101084.00;;;9.74;93.84
50684;BME280;36654;45.042;38.994;2023-04-08T03:45:24;101118.72;;;9.90;93.87
50684;BME280;36654;45.042;38.994;2023-04-08T03:47:50;101149.78;;;9.96;93.80
50684;BME280;36654;45.042;38.994;2023-04-08T03:50:16;101076.84;;;9.69;94.11
50684;BME280;36654;45.042;38.994;2023-04-08T03:52:41;101140.13;;;10.00;93.94
50684;BME280;36654;45.042;38.994;2023-04-08T03:55:07;101150.75;;;10.01;93.78
50684;BME280;36654;45.042;38.994;2023-04-08T03:57:33;101143.66;;;10.00;94.12
50684;BME280;36654;45.042;38.994;2023-04-08T03:59:59;101141.84;;;9.98;93.72
50684;BME280;36654;45.042;38.994;2023-04-08T04:02:25;101145.41;;;10.00;93.56
50684;BME280;36654;45.042;38.994;2023-04-08T04:04:50;101156.06;;;10.01;93.71
50684;BME280;36654;45.042;38.994;2023-04-08T04:07:16;101098.09;;;9.72;93.54
50684;BME280;36654;45.042;38.994;2023-04-08T04:09:41;101146.31;;;10.00;93.84
50684;BME280;36654;45.042;38.994;2023-04-08T04:12:07;101168.56;;;10.08;93.75
50684;BME280;36654;45.042;38.994;2023-04-08T04:14:32;101107.91;;;9.78;93.66
50684;BME280;36654;45.042;38.994;2023-04-08T04:16:58;101172.94;;;10.06;93.31
50684;BME280;36654;45.042;38.994;2023-04-08T04:19:24;101160.41;;;9.99;93.31
50684;BME280;36654;45.042;38.994;2023-04-08T04:21:49;101164.94;;;10.05;93.40
50684;BME280;36654;45.042;38.994;2023-04-08T04:24:15;101151.66;;;10.03;93.59
50684;BME280;36654;45.042;38.994;2023-04-08T04:26:41;101168.56;;;10.08;93.44
50684;BME280;36654;45.042;38.994;2023-04-08T04:29:06;101127.47;;;9.85;93.28
50684;BME280;36654;45.042;38.994;2023-04-08T04:31:32;101165.09;;;10.11;93.36
50684;BME280;36654;45.042;38.994;2023-04-08T04:33:57;101132.91;;;9.92;93.28
50684;BME280;36654;45.042;38.994;2023-04-08T04:36:23;101160.63;;;10.08;93.27
50684;BME280;36654;45.042;38.994;2023-04-08T04:38:49;101117.84;;;9.90;93.21
50684;BME280;36654;45.042;38.994;2023-04-08T04:41:15;101166.16;;;10.22;93.25
50684;BME280;36654;45.042;38.994;2023-04-08T04:43:41;101115.28;;;9.94;92.67
50684;BME280;36654;45.042;38.994;2023-04-08T04:46:07;101182.09;;;10.24;92.40
50684;BME280;36654;45.042;38.994;2023-04-08T04:48:36;101181.22;;;10.25;92.38
50684;BME280;36654;45.042;38.994;2023-04-08T04:51:02;101199.06;;;10.32;92.52
50684;BME280;36654;45.042;38.994;2023-04-08T04:53:28;101194.66;;;10.31;92.01
50684;BME280;36654;45.042;38.994;2023-04-08T04:55:54;101176.63;;;10.14;92.03
50684;BME280;36654;45.042;38.994;2023-04-08T04:58:20;101192.72;;;10.24;91.70
50684;BME280;36654;45.042;38.994;2023-04-08T05:00:46;101206.84;;;10.26;91.79
50684;BME280;36654;45.042;38.994;2023-04-08T05:03:12;101202.44;;;10.25;91.73
50684;BME280;36654;45.042;38.994;2023-04-08T05:05:38;101214.81;;;10.26;91.90
50684;BME280;36654;45.042;38.994;2023-04-08T05:08:04;101204.38;;;10.32;91.83
50684;BME280;36654;45.042;38.994;2023-04-08T05:10:29;101205.31;;;10.34;91.56
50684;BME280;36654;45.042;38.994;2023-04-08T05:12:55;101212.44;;;10.38;91.58
50684;BME280;36654;45.042;38.994;2023-04-08T05:15:21;101194.69;;;10.34;91.26
50684;BME280;36654;45.042;38.994;2023-04-08T05:17:49;101156.34;;;10.17;91.29
50684;BME280;36654;45.042;38.994;2023-04-08T05:20:15;101206.53;;;10.51;91.20
50684;BME280;36654;45.042;38.994;2023-04-08T05:22:41;101212.00;;;10.62;91.22
50684;BME280;36654;45.042;38.994;2023-04-08T05:25:09;101197.03;;;10.66;91.00
50684;BME280;36654;45.042;38.994;2023-04-08T05:27:34;101219.50;;;10.85;90.61
50684;BME280;36654;45.042;38.994;2023-04-08T05:30:00;101171.44;;;10.68;90.51
50684;BME280;36654;45.042;38.994;2023-04-08T05:32:26;101206.47;;;10.98;90.20
50684;BME280;36654;45.042;38.994;2023-04-08T05:34:51;101196.72;;;10.96;89.75
50684;BME280;36654;45.042;38.994;2023-04-08T05:37:17;101215.50;;;11.10;89.70
50684;BME280;36654;45.042;38.994;2023-04-08T05:39:42;101176.22;;;10.87;89.25
50684;BME280;36654;45.042;38.994;2023-04-08T05:42:08;101229.78;;;11.18;89.19
50684;BME280;36654;45.042;38.994;2023-04-08T05:44:34;101149.53;;;10.78;88.88
50684;BME280;36654;45.042;38.994;2023-04-08T05:46:59;101170.09;;;10.91;88.80
50684;BME280;36654;45.042;38.994;2023-04-08T05:49:25;101225.44;;;11.23;88.58
50684;BME280;36654;45.042;38.994;2023-04-08T05:51:51;101220.13;;;11.21;88.28
50684;BME280;36654;45.042;38.994;2023-04-08T05:54:16;101224.59;;;11.24;88.61
50684;BME280;36654;45.042;38.994;2023-04-08T05:56:42;101239.75;;;11.33;88.48
50684;BME280;36654;45.042;38.994;2023-04-08T05:59:10;101227.31;;;11.30;88.18
50684;BME280;36654;45.042;38.994;2023-04-08T06:01:36;101242.41;;;11.31;87.97
50684;BME280;36654;45.042;38.994;2023-04-08T06:04:02;101204.00;;;11.09;87.76
50684;BME280;36654;45.042;38.994;2023-04-08T06:06:27;101220.94;;;11.16;87.53
50684;BME280;36654;45.042;38.994;2023-04-08T06:08:53;101234.31;;;11.23;87.42
50684;BME280;36654;45.042;38.994;2023-04-08T06:11:18;101242.19;;;11.19;87.34
50684;BME280;36654;45.042;38.994;2023-04-08T06:13:44;101249.44;;;11.29;87.71
50684;BME280;36654;45.042;38.994;2023-04-08T06:16:14;101250.38;;;11.33;87.36
50684;BME280;36654;45.042;38.994;2023-04-08T06:18:42;101256.59;;;11.33;87.46
50684;BME280;36654;45.042;38.994;2023-04-08T06:21:09;101212.09;;;11.17;87.08
50684;BME280;36654;45.042;38.994;2023-04-08T06:23:35;101255.88;;;11.43;87.03
50684;BME280;36654;45.042;38.994;2023-04-08T06:26:01;101260.31;;;11.44;86.74
50684;BME280;36654;45.042;38.994;2023-04-08T06:28:30;101265.66;;;11.46;86.52
50684;BME280;36654;45.042;38.994;2023-04-08T06:30:57;101267.59;;;11.58;86.52
50684;BME280;36654;45.042;38.994;2023-04-08T06:33:22;101269.44;;;11.62;86.28
50684;BME280;36654;45.042;38.994;2023-04-08T06:35:48;101276.66;;;11.72;86.29
50684;BME280;36654;45.042;38.994;2023-04-08T06:38:14;101282.09;;;11.78;85.81
50684;BME280;36654;45.042;38.994;2023-04-08T06:40:40;101281.25;;;11.81;85.53
50684;BME280;36654;45.042;38.994;2023-04-08T06:43:05;101270.72;;;11.87;85.43
50684;BME280;36654;45.042;38.994;2023-04-08T06:45:36;101269.91;;;11.93;85.14
50684;BME280;36654;45.042;38.994;2023-04-08T06:48:01;101270.84;;;11.96;84.89
50684;BME280;36654;45.042;38.994;2023-04-08T06:50:27;101271.81;;;12.03;84.59
50684;BME280;36654;45.042;38.994;2023-04-08T06:52:52;101266.56;;;12.07;84.03
50684;BME280;36654;45.042;38.994;2023-04-08T06:55:19;101266.56;;;12.06;83.81
50684;BME280;36654;45.042;38.994;2023-04-08T06:57:44;101277.41;;;12.21;83.53
50684;BME280;36654;45.042;38.994;2023-04-08T07:00:10;101275.56;;;12.17;83.21
50684;BME280;36654;45.042;38.994;2023-04-08T07:02:36;101277.38;;;12.18;83.27
50684;BME280;36654;45.042;38.994;2023-04-08T07:05:01;101286.16;;;12.14;83.28
50684;BME280;36654;45.042;38.994;2023-04-08T07:07:30;101286.19;;;12.17;83.23
50684;BME280;36654;45.042;38.994;2023-04-08T07:09:56;101279.06;;;12.13;83.45
50684;BME280;36654;45.042;38.994;2023-04-08T07:12:22;101275.53;;;12.14;83.57
50684;BME280;36654;45.042;38.994;2023-04-08T07:14:47;101259.44;;;12.05;83.51
50684;BME280;36654;45.042;38.994;2023-04-08T07:17:13;101293.47;;;12.30;83.55
50684;BME280;36654;45.042;38.994;2023-04-08T07:19:38;101286.34;;;12.29;83.25
50684;BME280;36654;45.042;38.994;2023-04-08T07:22:05;101280.09;;;12.24;83.06
50684;BME280;36654;45.042;38.994;2023-04-08T07:24:31;101277.44;;;12.24;83.20
50684;BME280;36654;45.042;38.994;2023-04-08T07:26:57;101281.03;;;12.29;83.28
50684;BME280;36654;45.042;38.994;2023-04-08T07:29:22;101277.47;;;12.27;83.20
50684;BME280;36654;45.042;38.994;2023-04-08T07:31:48;101240.88;;;12.06;82.87
50684;BME280;36654;45.042;38.994;2023-04-08T07:34:13;101282.88;;;12.34;82.84
50684;BME280;36654;45.042;38.994;2023-04-08T07:36:39;101233.84;;;12.12;82.39
50684;BME280;36654;45.042;38.994;2023-04-08T07:39:05;101286.50;;;12.42;82.30
50684;BME280;36654;45.042;38.994;2023-04-08T07:41:31;101281.16;;;12.39;82.10
50684;BME280;36654;45.042;38.994;2023-04-08T07:43:57;101280.31;;;12.43;81.97
50684;BME280;36654;45.042;38.994;2023-04-08T07:46:25;101279.41;;;12.42;81.67
50684;BME280;36654;45.042;38.994;2023-04-08T07:48:51;101229.47;;;12.15;81.58
50684;BME280;36654;45.042;38.994;2023-04-08T07:51:16;101290.97;;;12.44;81.40
50684;BME280;36654;45.042;38.994;2023-04-08T07:53:42;101291.84;;;12.43;81.64
50684;BME280;36654;45.042;38.994;2023-04-08T07:56:13;101291.84;;;12.45;81.65
50684;BME280;36654;45.042;38.994;2023-04-08T07:58:39;101299.81;;;12.42;81.75
50684;BME280;36654;45.042;38.994;2023-04-08T08:03:40;101289.00;;;12.29;81.98
50684;BME280;36654;45.042;38.994;2023-04-08T08:06:06;101291.75;;;12.36;82.00
50684;BME280;36654;45.042;38.994;2023-04-08T08:08:31;101298.81;;;12.34;82.16
50684;BME280;36654;45.042;38.994;2023-04-08T08:10:59;101311.31;;;12.41;82.05
50684;BME280;36654;45.042;38.994;2023-04-08T08:13:25;101313.09;;;12.42;82.09
50684;BME280;36654;45.042;38.994;2023-04-08T08:15:56;101296.97;;;12.26;82.15
50684;BME280;36654;45.042;38.994;2023-04-08T08:18:22;101289.81;;;12.22;82.45
50684;BME280;36654;45.042;38.994;2023-04-08T08:20:48;101331.88;;;12.54;81.96
50684;BME280;36654;45.042;38.994;2023-04-08T08:23:13;101338.13;;;12.59;nan
50684;BME280;36654;45.042;38.994;2023-04-08T08:25:40;101305.06;;;12.37;81.44
50684;BME280;36654;45.042;38.994;2023-04-08T08:28:05;101326.53;;;12.51;81.69
50684;BME280;36654;45.042;38.994;2023-04-08T08:30:31;101336.31;;;12.55;81.53
50684;BME280;36654;45.042;38.994;2023-04-08T08:32:57;101313.16;;;12.48;81.62
50684;BME280;36654;45.042;38.994;2023-04-08T08:35:24;101339.03;;;12.60;81.59
50684;BME280;36654;45.042;38.994;2023-04-08T08:37:49;101348.81;;;12.62;81.55
50684;BME280;36654;45.042;38.994;2023-04-08T08:40:15;101336.38;;;12.58;81.57
50684;BME280;36654;45.042;38.994;2023-04-08T08:42:47;101331.91;;;12.56;81.54
50684;BME280;36654;45.042;38.994;2023-04-08T08:45:14;101337.22;;;12.56;81.21
50684;BME280;36654;45.042;38.994;2023-04-08T08:47:40;101343.53;;;12.65;81.45
50684;BME280;36654;45.042;38.994;2023-04-08T08:50:06;101357.75;;;12.67;81.50
50684;BME280;36654;45.042;38.994;2023-04-08T08:52:32;101314.97;;;12.49;81.52
50684;BME280;36654;45.042;38.994;2023-04-08T08:54:58;101299.88;;;12.46;81.53
50684;BME280;36654;45.042;38.994;2023-04-08T08:57:24;101343.59;;;12.68;81.31
50684;BME280;36654;45.042;38.994;2023-04-08T08:59:49;101306.03;;;12.45;81.15
50684;BME280;36654;45.042;38.994;2023-04-08T09:02:23;101362.25;;;12.71;81.25
50684;BME280;36654;45.042;38.994;2023-04-08T09:05:02;101364.91;;;12.71;81.20
50684;BME280;36654;45.042;38.994;2023-04-08T09:07:30;101369.31;;;12.72;81.32
50684;BME280;36654;45.042;38.994;2023-04-08T09:09:57;101372.09;;;12.79;81.49
50684;BME280;36654;45.042;38.994;2023-04-08T09:12:24;101369.47;;;12.85;81.56
50684;BME280;36654;45.042;38.994;2023-04-08T09:15:11;101338.25;;;12.68;81.43
50684;BME280;36654;45.042;38.994;2023-04-08T09:17:38;101379.28;;;12.86;81.60
50684;BME280;36654;45.042;38.994;2023-04-08T09:20:09;101385.44;;;12.83;81.89
50684;BME280;36654;45.042;38.994;2023-04-08T09:22:59;101383.63;;;12.82;82.30
50684;BME280;36654;45.042;38.994;2023-04-08T09:25:28;101384.50;;;12.80;82.57
50684;BME280;36654;45.042;38.994;2023-04-08T09:27:55;101346.97;;;12.57;82.79
50684;BME280;36654;45.042;38.994;2023-04-08T09:30:23;101389.00;;;12.85;82.84
50684;BME280;36654;45.042;38.994;2023-04-08T09:32:54;101338.16;;;12.62;82.75
50684;BME280;36654;45.042;38.994;2023-04-08T09:35:20;101398.88;;;12.94;82.90
50684;BME280;36654;45.042;38.994;2023-04-08T09:37:47;101391.84;;;12.99;82.81
50684;BME280;36654;45.042;38.994;2023-04-08T09:40:13;101399.88;;;13.04;82.83
50684;BME280;36654;45.042;38.994;2023-04-08T09:42:47;101382.06;;;13.00;82.74
50684;BME280;36654;45.042;38.994;2023-04-08T09:45:17;101394.69;;;13.16;82.58
50684;BME280;36654;45.042;38.994;2023-04-08T09:47:58;101392.03;;;13.16;82.24
50684;BME280;36654;45.042;38.994;2023-04-08T09:50:31;101406.34;;;13.26;82.21
50684;BME280;36654;45.042;38.994;2023-04-08T09:53:08;101383.16;;;13.15;82.05
50684;BME280;36654;45.042;38.994;2023-04-08T09:55:35;101420.56;;;13.28;82.27
50684;BME280;36654;45.042;38.994;2023-04-08T09:58:15;101416.16;;;13.30;82.30
50684;BME280;36654;45.042;38.994;2023-04-08T10:00:46;101422.38;;;13.29;82.21
50684;BME280;36654;45.042;38.994;2023-04-08T10:03:34;101425.03;;;13.30;82.19
50684;BME280;36654;45.042;38.994;2023-04-08T10:06:01;101420.53;;;13.26;82.13
50684;BME280;36654;45.042;38.994;2023-04-08T10:08:28;101430.38;;;13.29;81.89
50684;BME280;36654;45.042;38.994;2023-04-08T10:10:55;101441.94;;;13.32;81.92
50684;BME280;36654;45.042;38.994;2023-04-08T10:13:22;101441.94;;;13.31;81.84
50684;BME280;36654;45.042;38.994;2023-04-08T10:15:48;101441.03;;;13.32;81.86
50684;BME280;36654;45.042;38.994;2023-04-08T10:18:29;101409.72;;;13.12;81.78
50684;BME280;36654;45.042;38.994;2023-04-08T10:20:56;101450.88;;;13.39;81.67
50684;BME280;36654;45.042;38.994;2023-04-08T10:23:54;101452.66;;;13.40;81.50
50684;BME280;36654;45.042;38.994;2023-04-08T10:26:50;101449.16;;;13.41;81.45
50684;BME280;36654;45.042;38.994;2023-04-08T10:31:42;101444.66;;;13.35;80.99
50684;BME280;36654;45.042;38.994;2023-04-08T10:34:18;101454.50;;;13.44;81.10
50684;BME280;36654;45.042;38.994;2023-04-08T10:36:45;101418.81;;;13.30;81.15
50684;BME280;36654;45.042;38.994;2023-04-08T10:39:12;101446.59;;;13.52;81.05
50684;BME280;36654;45.042;38.994;2023-04-08T10:41:45;101416.25;;;13.36;81.28
50684;BME280;36654;45.042;38.994;2023-04-08T10:44:18;101454.63;;;13.56;81.16
50684;BME280;36654;45.042;38.994;2023-04-08T10:46:45;101452.00;;;13.59;81.24
50684;BME280;36654;45.042;38.994;2023-04-08T10:49:11;101460.91;;;13.62;81.23
50684;BME280;36654;45.042;38.994;2023-04-08T10:51:38;101467.97;;;13.59;80.97
50684;BME280;36654;45.042;38.994;2023-04-08T10:54:12;101467.13;;;13.61;81.37
50684;BME280;36654;45.042;38.994;2023-04-08T10:56:49;101471.56;;;13.62;81.54
50684;BME280;36654;45.042;38.994;2023-04-08T10:59:25;101461.72;;;13.57;81.95
50684;BME280;36654;45.042;38.994;2023-04-08T11:01:51;101470.66;;;13.61;81.77
50684;BME280;36654;45.042;38.994;2023-04-08T11:04:17;101421.63;;;13.42;81.97
50684;BME280;36654;45.042;38.994;2023-04-08T11:06:45;101437.69;;;13.48;82.10
50684;BME280;36654;45.042;38.994;2023-04-08T11:09:12;101456.53;;;13.68;82.40
50684;BME280;36654;45.042;38.994;2023-04-08T11:11:40;101421.69;;;13.50;82.04
50684;BME280;36654;45.042;38.994;2023-04-08T11:14:06;101459.25;;;13.73;82.15
50684;BME280;36654;45.042;38.994;2023-04-08T11:16:33;101434.31;;;13.66;82.15
50684;BME280;36654;45.042;38.994;2023-04-08T11:19:04;101461.09;;;13.81;82.25
50684;BME280;36654;45.042;38.994;2023-04-08T11:23:55;101405.91;;;13.68;81.56
50684;BME280;36654;45.042;38.994;2023-04-08T11:26:22;101457.72;;;14.02;81.26
50684;BME280;36654;45.042;38.994;2023-04-08T11:28:48;101397.06;;;13.74;80.90
50684;BME280;36654;45.042;38.994;2023-04-08T11:31:16;101390.91;;;13.82;80.79
50684;BME280;36654;45.042;38.994;2023-04-08T11:33:46;101438.31;;;14.19;80.67
50684;BME280;36654;45.042;38.994;2023-04-08T11:36:18;101404.41;;;14.04;80.31
50684;BME280;36654;45.042;38.994;2023-04-08T11:38:45;101430.31;;;14.22;79.93
50684;BME280;36654;45.042;38.994;2023-04-08T11:41:12;101439.34;;;14.39;79.94
50684;BME280;36654;45.042;38.994;2023-04-08T11:43:38;101460.81;;;14.55;79.36
50684;BME280;36654;45.042;38.994;2023-04-08T11:46:09;101397.41;;;14.20;78.74
50684;BME280;36654;45.042;38.994;2023-04-08T11:48:36;101469.66;;;14.51;78.64
50684;BME280;36654;45.042;38.994;2023-04-08T11:51:06;101414.34;;;14.25;78.17
50684;BME280;36654;45.042;38.994;2023-04-08T11:53:35;101462.56;;;14.53;78.14
50684;BME280;36654;45.042;38.994;2023-04-08T11:56:18;101416.13;;;14.26;77.83
50684;BME280;36654;45.042;38.994;2023-04-08T11:58:44;101418.81;;;14.26;77.51
50684;BME280;36654;45.042;38.994;2023-04-08T12:01:10;101464.41;;;14.58;77.54
50684;BME280;36654;45.042;38.994;2023-04-08T12:03:36;101460.81;;;14.55;77.85
50684;BME280;36654;45.042;38.994;2023-04-08T12:06:02;101447.47;;;14.55;77.56
50684;BME280;36654;45.042;38.994;2023-04-08T12:08:29;101440.28;;;14.52;77.88
50684;BME280;36654;45.042;38.994;2023-04-08T12:10:55;101457.31;;;14.65;77.95
50684;BME280;36654;45.042;38.994;2023-04-08T12:13:21;101451.03;;;14.60;77.96
50684;BME280;36654;45.042;38.994;2023-04-08T12:15:47;101451.13;;;14.71;77.85
50684;BME280;36654;45.042;38.994;2023-04-08T12:18:12;101445.75;;;14.64;77.12
50684;BME280;36654;45.042;38.994;2023-04-08T12:20:38;101422.59;;;14.56;77.27
50684;BME280;36654;45.042;38.994;2023-04-08T12:23:03;101448.44;;;14.66;77.03
50684;BME280;36654;45.042;38.994;2023-04-08T12:25:29;101446.63;;;14.62;76.89
50684;BME280;36654;45.042;38.994;2023-04-08T12:27:55;101439.50;;;14.61;76.80
50684;BME280;36654;45.042;38.994;2023-04-08T12:30:21;101443.97;;;14.65;76.89
50684;BME280;36654;45.042;38.994;2023-04-08T12:32:46;101440.41;;;14.64;76.61
50684;BME280;36654;45.042;38.994;2023-04-08T12:35:12;101453.72;;;14.60;76.20
50684;BME280;36654;45.042;38.994;2023-04-08T12:37:39;101393.00;;;14.25;76.27
50684;BME280;36654;45.042;38.994;2023-04-08T12:40:05;101392.97;;;14.22;76.01
50684;BME280;36654;45.042;38.994;2023-04-08T12:42:31;101460.84;;;14.61;76.03
50684;BME280;36654;45.042;38.994;2023-04-08T12:45:00;101398.38;;;14.28;75.83
50684;BME280;36654;45.042;38.994;2023-04-08T12:47:29;101290.38;;;13.60;75.57
50684;BME280;36654;45.042;38.994;2023-04-08T12:49:55;101372.41;;;14.02;75.79
50684;BME280;36654;45.042;38.994;2023-04-08T12:52:20;101471.53;;;14.58;75.75
50684;BME280;36654;45.042;38.994;2023-04-08T12:54:47;101435.81;;;14.46;75.84